Time;durP1;ratioP1;P1;durP2;ratioP2;P2;SDS_P1;SDS_P2;PMS_P1;PMS_P2;Temp;Humidity;BMP_temperature;BMP_pressure;BME280_temperature;BME280_humidity;BME280_pressure;Samples;Min_cycle;Max_cycle;Signal;HPM_P1;HPM_P2
2020/12/11 00:01:19;;;;;;;15.57;5.85;;;0.10;99.90;;;;;;4927656;29;20472;-78
2020/12/11 00:03:47;;;;;;;11.45;5.97;;;0.10;99.90;;;;;;4925315;29;20177;-77
2020/12/11 00:06:21;;;;;;;23.95;9.20;;;0.10;99.90;;;;;;4923077;29;20236;-77
2020/12/11 00:08:49;;;;;;;19.83;9.48;;;0.20;99.90;;;;;;4923725;29;20633;-78
2020/12/11 00:11:16;;;;;;;16.27;6.05;;;0.10;99.90;;;;;;4923495;29;20210;-79
2020/12/11 00:13:43;;;;;;;16.25;8.20;;;0.00;99.90;;;;;;4927505;29;20201;-78
2020/12/11 00:16:11;;;;;;;16.08;9.52;;;0.10;99.90;;;;;;4929287;29;20252;-77
2020/12/11 00:18:38;;;;;;;14.23;7.22;;;0.10;99.90;;;;;;4926609;29;20185;-77
2020/12/11 00:21:06;;;;;;;15.50;9.63;;;0.10;99.90;;;;;;4922322;29;20197;-78
2020/12/11 00:23:35;;;;;;;14.70;9.82;;;0.00;99.90;;;;;;4923392;29;20181;-77
2020/12/11 00:26:02;;;;;;;24.80;9.43;;;0.00;99.90;;;;;;4924486;29;20402;-77
2020/12/11 00:28:31;;;;;;;13.73;8.27;;;0.10;99.90;;;;;;4922397;29;20208;-77
2020/12/11 00:30:59;;;;;;;16.95;7.07;;;0.10;99.90;;;;;;4925310;29;20634;-77
2020/12/11 00:33:26;;;;;;;13.48;9.68;;;0.10;99.90;;;;;;4925483;29;20289;-76
2020/12/11 00:35:54;;;;;;;19.13;9.18;;;0.10;99.90;;;;;;4926247;29;20292;-77
2020/12/11 00:38:22;;;;;;;14.25;7.75;;;0.10;99.90;;;;;;4926386;29;20537;-77
2020/12/11 00:40:50;;;;;;;22.92;9.00;;;0.10;99.90;;;;;;4928406;29;20193;-77
2020/12/11 00:43:18;;;;;;;22.60;10.98;;;0.20;99.90;;;;;;4931436;29;20189;-77
2020/12/11 00:45:46;;;;;;;14.57;7.38;;;0.10;99.90;;;;;;4930816;29;20210;-77
2020/12/11 00:48:14;;;;;;;9.75;5.43;;;0.20;99.90;;;;;;4929788;29;20185;-77
2020/12/11 00:50:42;;;;;;;13.85;11.70;;;0.20;99.90;;;;;;4929409;29;20623;-77
2020/12/11 00:53:10;;;;;;;23.08;10.63;;;0.10;99.90;;;;;;4932345;29;20616;-77
2020/12/11 00:55:38;;;;;;;15.82;8.55;;;0.20;99.90;;;;;;4932399;29;20209;-77
2020/12/11 00:58:07;;;;;;;14.90;8.00;;;0.20;99.90;;;;;;4931984;29;20182;-77
2020/12/11 01:00:34;;;;;;;18.02;8.95;;;0.20;99.90;;;;;;4930979;29;20201;-77
2020/12/11 01:03:02;;;;;;;23.85;9.18;;;0.20;99.90;;;;;;4932455;29;20174;-77
2020/12/11 01:05:29;;;;;;;22.13;7.40;;;0.20;99.90;;;;;;4931801;29;20252;-77
2020/12/11 01:07:56;;;;;;;14.57;10.20;;;0.20;99.90;;;;;;4934855;29;20182;-77
2020/12/11 01:10:24;;;;;;;20.08;8.23;;;0.10;99.90;;;;;;4930665;29;20197;-78
2020/12/11 01:12:51;;;;;;;10.70;5.50;;;0.00;99.90;;;;;;4919322;29;20201;-78
2020/12/11 01:15:19;;;;;;;26.30;11.40;;;0.00;99.90;;;;;;4918301;29;20696;-77
2020/12/11 01:17:46;;;;;;;14.93;7.68;;;0.00;99.90;;;;;;4921246;29;20189;-79
2020/12/11 01:20:14;;;;;;;18.38;9.52;;;0.00;99.90;;;;;;4921410;29;20185;-78
2020/12/11 01:22:45;;;;;;;24.23;11.38;;;0.10;99.90;;;;;;4921246;29;20178;-77
2020/12/11 01:25:12;;;;;;;14.73;10.63;;;0.00;99.90;;;;;;4920708;29;20402;-77
2020/12/11 01:27:39;;;;;;;12.15;5.00;;;0.00;99.90;;;;;;4936137;29;20213;-77
2020/12/11 01:30:06;;;;;;;10.07;6.68;;;0.10;99.90;;;;;;4919359;29;20201;-77
2020/12/11 01:32:34;;;;;;;18.77;9.52;;;0.10;99.90;;;;;;4926984;29;20193;-78
2020/12/11 01:35:02;;;;;;;18.58;9.57;;;0.10;99.90;;;;;;4921673;29;20229;-77
2020/12/11 01:37:29;;;;;;;14.90;9.18;;;0.10;99.90;;;;;;4922477;29;20217;-78
2020/12/11 01:39:57;;;;;;;13.30;7.43;;;0.00;99.90;;;;;;4920948;29;20186;-78
2020/12/11 01:42:24;;;;;;;20.95;9.52;;;0.00;99.90;;;;;;4920236;29;20657;-78
2020/12/11 01:44:52;;;;;;;14.20;9.18;;;0.00;99.90;;;;;;4919939;29;20731;-79
2020/12/11 01:47:21;;;;;;;23.30;11.95;;;0.00;99.90;;;;;;4921352;29;20192;-77
2020/12/11 01:49:51;;;;;;;20.15;9.15;;;0.10;99.90;;;;;;4921606;29;20198;-78
2020/12/11 01:52:19;;;;;;;12.68;8.65;;;0.10;99.90;;;;;;4919923;29;20205;-77
2020/12/11 01:54:47;;;;;;;12.35;6.40;;;0.10;99.90;;;;;;4919317;29;20213;-77
2020/12/11 01:57:23;;;;;;;16.20;8.27;;;0.20;99.90;;;;;;4920882;29;20268;-77
2020/12/11 01:59:53;;;;;;;14.75;5.65;;;0.20;99.90;;;;;;4923184;29;20416;-77
2020/12/11 02:02:21;;;;;;;20.27;9.07;;;0.20;99.90;;;;;;4924546;29;20622;-77
2020/12/11 02:04:50;;;;;;;11.00;5.13;;;0.30;99.90;;;;;;4926152;29;20229;-77
2020/12/11 02:07:17;;;;;;;16.75;7.78;;;0.30;99.90;;;;;;4930579;29;20216;-77
2020/12/11 02:09:44;;;;;;;18.40;8.10;;;0.30;99.90;;;;;;4919442;29;20555;-77
2020/12/11 02:12:11;;;;;;;11.15;7.28;;;0.10;99.90;;;;;;4919099;29;20576;-77
2020/12/11 02:14:39;;;;;;;15.15;5.20;;;0.10;99.90;;;;;;4918603;29;20226;-78
2020/12/11 02:17:07;;;;;;;26.10;8.55;;;0.10;99.90;;;;;;4933775;29;20756;-77
2020/12/11 02:19:35;;;;;;;11.68;8.70;;;0.10;99.90;;;;;;4919767;29;20186;-78
2020/12/11 02:22:04;;;;;;;21.75;10.35;;;0.10;99.90;;;;;;4919335;29;20174;-77
2020/12/11 02:24:32;;;;;;;11.32;5.65;;;0.10;99.90;;;;;;4919104;29;20213;-77
2020/12/11 02:27:01;;;;;;;10.95;7.20;;;0.00;99.90;;;;;;4921847;29;20193;-77
2020/12/11 02:29:28;;;;;;;13.40;9.77;;;0.00;99.90;;;;;;4924589;29;20260;-78
2020/12/11 02:31:56;;;;;;;18.10;9.65;;;0.00;99.90;;;;;;4924319;29;20244;-79
2020/12/11 02:34:23;;;;;;;18.60;9.00;;;0.00;99.90;;;;;;4926978;29;20204;-77
2020/12/11 02:36:50;;;;;;;11.27;6.43;;;0.10;99.90;;;;;;4924115;29;20238;-78
2020/12/11 02:39:19;;;;;;;11.32;7.38;;;0.00;99.90;;;;;;4940173;29;20658;-78
2020/12/11 02:41:54;;;;;;;19.08;9.00;;;0.00;99.90;;;;;;4924197;29;20198;-77
2020/12/11 02:44:22;;;;;;;21.48;9.05;;;0.00;99.90;;;;;;4925058;29;20177;-78
2020/12/11 02:46:49;;;;;;;13.68;6.28;;;0.00;99.90;;;;;;4925125;29;20664;-78
2020/12/11 02:49:17;;;;;;;31.90;8.88;;;0.00;99.90;;;;;;4925120;29;20185;-78
2020/12/11 02:51:44;;;;;;;28.02;12.05;;;0.00;99.90;;;;;;4926490;29;20205;-78
2020/12/11 02:54:12;;;;;;;16.63;8.90;;;0.10;99.90;;;;;;4924922;29;20264;-78
2020/12/11 02:56:39;;;;;;;29.67;9.75;;;0.10;99.90;;;;;;4927462;29;20592;-77
2020/12/11 02:59:07;;;;;;;18.50;9.73;;;0.10;99.90;;;;;;4925022;29;20269;-77
2020/12/11 03:01:34;;;;;;;25.42;8.00;;;0.10;99.90;;;;;;4926964;29;20218;-78
2020/12/11 03:04:03;;;;;;;14.55;5.78;;;0.20;99.90;;;;;;4928778;29;20173;-78
2020/12/11 03:06:31;;;;;;;13.13;8.02;;;0.10;99.90;;;;;;4924078;29;20253;-78
2020/12/11 03:09:00;;;;;;;19.38;10.70;;;0.10;99.90;;;;;;4923377;29;20233;-77
2020/12/11 03:11:27;;;;;;;15.48;10.00;;;0.20;99.90;;;;;;4923089;29;20188;-78
2020/12/11 03:13:56;;;;;;;16.23;8.43;;;0.10;99.90;;;;;;4924150;29;20184;-78
2020/12/11 03:16:24;;;;;;;16.38;6.82;;;0.20;99.90;;;;;;4922889;29;20728;-78
2020/12/11 03:18:52;;;;;;;17.05;8.65;;;0.20;99.90;;;;;;4919783;29;20244;-78
2020/12/11 03:21:20;;;;;;;24.20;10.90;;;0.10;99.90;;;;;;4915520;29;20611;-78
2020/12/11 03:23:48;;;;;;;21.92;9.95;;;0.10;99.90;;;;;;4916583;29;20186;-78
2020/12/11 03:26:16;;;;;;;14.25;6.10;;;0.10;99.90;;;;;;4916547;29;20647;-78
2020/12/11 03:28:44;;;;;;;23.05;9.15;;;0.20;99.90;;;;;;4916510;29;20283;-78
2020/12/11 03:31:16;;;;;;;21.65;10.68;;;0.20;99.90;;;;;;4919928;29;20624;-78
2020/12/11 03:33:44;;;;;;;10.05;4.60;;;0.20;99.90;;;;;;4920236;29;20685;-78
2020/12/11 03:36:11;;;;;;;21.92;9.18;;;0.20;99.90;;;;;;4920318;29;20205;-77
2020/12/11 03:38:39;;;;;;;15.07;7.28;;;0.20;99.90;;;;;;4920840;29;20185;-77
2020/12/11 03:41:07;;;;;;;15.10;7.38;;;0.10;99.90;;;;;;4922465;29;20225;-77
2020/12/11 03:43:34;;;;;;;38.97;12.48;;;0.10;99.90;;;;;;4924977;29;20261;-77
2020/12/11 03:46:02;;;;;;;10.77;8.90;;;0.10;99.90;;;;;;4921707;29;20217;-77
2020/12/11 03:48:31;;;;;;;12.88;5.32;;;0.00;99.90;;;;;;4921766;29;20191;-78
2020/12/11 03:50:59;;;;;;;22.33;9.73;;;0.00;99.90;;;;;;4921255;29;20185;-77
2020/12/11 03:53:26;;;;;;;13.98;6.07;;;0.00;99.90;;;;;;4920776;29;20205;-77
2020/12/11 03:55:57;;;;;;;22.77;10.32;;;0.00;99.90;;;;;;4920340;29;20225;-78
2020/12/11 03:58:27;;;;;;;12.68;7.70;;;0.00;99.90;;;;;;4920465;29;20225;-78
2020/12/11 04:00:55;;;;;;;17.25;7.82;;;-0.10;99.90;;;;;;4918747;29;20245;-78
2020/12/11 04:03:23;;;;;;;16.08;8.27;;;0.00;99.90;;;;;;4920156;29;20189;-77
2020/12/11 04:05:52;;;;;;;16.30;8.10;;;0.00;99.90;;;;;;4919525;29;20240;-77
2020/12/11 04:08:20;;;;;;;28.73;9.85;;;0.00;99.90;;;;;;4921231;29;20660;-77
2020/12/11 04:10:47;;;;;;;16.60;7.53;;;0.00;99.90;;;;;;4920013;29;20189;-80
2020/12/11 04:13:15;;;;;;;20.00;8.57;;;0.00;99.90;;;;;;4920817;29;20269;-78
2020/12/11 04:15:43;;;;;;;14.73;6.90;;;0.10;99.90;;;;;;4919171;29;20232;-78
2020/12/11 04:18:13;;;;;;;24.30;11.40;;;0.10;99.90;;;;;;4921330;29;20236;-78
2020/12/11 04:20:42;;;;;;;12.45;6.80;;;0.00;99.90;;;;;;4935990;29;20194;-79
2020/12/11 04:23:11;;;;;;;21.95;9.82;;;0.10;99.90;;;;;;4920393;29;20162;-77
2020/12/11 04:25:38;;;;;;;14.45;8.95;;;0.10;99.90;;;;;;4919512;29;20217;-78
2020/12/11 04:28:06;;;;;;;17.45;8.25;;;0.10;99.90;;;;;;4919564;29;20194;-78
2020/12/11 04:30:34;;;;;;;25.05;8.02;;;0.10;99.90;;;;;;4919151;29;20261;-78
2020/12/11 04:33:07;;;;;;;10.35;6.47;;;0.10;99.90;;;;;;4920430;29;20209;-78
2020/12/11 04:39:39;;;;;;;12.15;5.32;;;0.00;99.90;;;;;;4922366;29;20273;-77
2020/12/11 04:42:08;;;;;;;16.02;7.20;;;0.10;99.90;;;;;;4919064;29;20170;-78
2020/12/11 04:44:36;;;;;;;18.42;10.90;;;0.00;99.90;;;;;;4920754;29;20241;-78
2020/12/11 04:47:10;;;;;;;18.55;10.85;;;-0.10;99.90;;;;;;4935081;29;20221;-77
2020/12/11 04:49:43;;;;;;;9.32;6.50;;;0.00;99.90;;;;;;4920016;29;20178;-77
2020/12/11 04:52:16;;;;;;;12.50;7.75;;;0.10;99.90;;;;;;4920454;29;20208;-78
2020/12/11 04:54:50;;;;;;;32.50;9.23;;;0.00;99.90;;;;;;4920188;29;20595;-78
2020/12/11 04:57:26;;;;;;;12.60;5.78;;;0.00;99.90;;;;;;4920974;29;20174;-77
2020/12/11 04:59:53;;;;;;;18.80;6.20;;;0.00;99.90;;;;;;4921090;29;20181;-77
2020/12/11 05:02:21;;;;;;;26.70;10.63;;;0.00;99.90;;;;;;4920812;29;20189;-78
2020/12/11 05:04:52;;;;;;;10.10;7.07;;;-0.10;99.90;;;;;;4920259;29;20294;-78
2020/12/11 05:07:20;;;;;;;17.05;12.20;;;-0.10;99.90;;;;;;4920765;29;20280;-78
2020/12/11 05:09:58;;;;;;;17.95;7.85;;;-0.10;99.90;;;;;;4920175;29;20194;-78
2020/12/11 05:12:25;;;;;;;22.70;7.28;;;-0.10;99.90;;;;;;4920475;29;20256;-78
2020/12/11 05:14:57;;;;;;;22.75;10.65;;;-0.10;99.90;;;;;;4919855;29;20704;-78
2020/12/11 05:17:30;;;;;;;9.20;5.18;;;-0.10;99.90;;;;;;4920642;29;20178;-77
2020/12/11 05:20:01;;;;;;;24.88;8.60;;;-0.10;99.90;;;;;;4924416;29;20233;-78
2020/12/11 05:22:32;;;;;;;19.00;7.82;;;0.00;99.90;;;;;;4921316;29;20634;-78
2020/12/11 05:25:02;;;;;;;13.40;6.05;;;0.00;99.90;;;;;;4921770;29;20229;-78
2020/12/11 05:27:33;;;;;;;12.45;7.97;;;0.00;99.90;;;;;;4927006;29;20193;-78
2020/12/11 05:30:18;;;;;;;13.00;7.15;;;0.00;99.90;;;;;;4920630;29;20264;-78
2020/12/11 05:32:48;;;;;;;10.70;4.82;;;0.00;99.90;;;;;;4921166;29;20189;-77
2020/12/11 05:35:29;;;;;;;12.35;7.13;;;-0.10;99.90;;;;;;4920899;29;20277;-78
2020/12/11 05:38:03;;;;;;;25.88;9.15;;;-0.10;99.90;;;;;;4918745;29;20192;-77
2020/12/11 05:40:34;;;;;;;20.20;8.35;;;-0.10;99.90;;;;;;4919372;29;20181;-77
2020/12/11 05:43:10;;;;;;;11.93;3.92;;;-0.20;99.90;;;;;;4920004;29;20180;-78
2020/12/11 05:45:39;;;;;;;7.43;6.50;;;-0.20;99.90;;;;;;4924032;29;20224;-77
2020/12/11 05:48:07;;;;;;;12.35;8.02;;;-0.10;99.90;;;;;;4920217;29;20182;-77
2020/12/11 05:50:35;;;;;;;12.00;8.48;;;-0.10;99.90;;;;;;4918565;29;20749;-78
2020/12/11 05:53:03;;;;;;;7.53;6.72;;;-0.10;99.90;;;;;;4918864;29;20248;-78
2020/12/11 05:55:30;;;;;;;11.88;7.50;;;0.00;99.90;;;;;;4933110;29;20643;-79
2020/12/11 05:57:59;;;;;;;18.48;8.27;;;0.00;99.90;;;;;;4918413;29;20553;-77
2020/12/11 06:00:27;;;;;;;30.02;9.52;;;0.00;99.90;;;;;;4933578;29;20642;-78
2020/12/11 06:02:56;;;;;;;11.35;6.22;;;0.00;99.90;;;;;;4919238;29;20185;-77
2020/12/11 06:05:25;;;;;;;18.30;9.45;;;0.10;99.90;;;;;;4922042;29;20217;-75
2020/12/11 06:07:53;;;;;;;20.88;7.57;;;0.00;99.90;;;;;;4931489;29;20201;-75
2020/12/11 06:10:22;;;;;;;16.52;8.25;;;0.00;99.90;;;;;;4929125;29;20201;-76
2020/12/11 06:12:50;;;;;;;19.20;8.75;;;0.00;99.90;;;;;;4936745;29;20216;-75
2020/12/11 06:15:30;;;;;;;21.23;8.75;;;0.00;99.90;;;;;;4919555;29;20217;-76
2020/12/11 06:18:03;;;;;;;11.73;7.05;;;0.00;99.90;;;;;;4918359;29;20237;-76
2020/12/11 06:20:31;;;;;;;8.70;5.97;;;0.00;99.90;;;;;;4917688;29;20237;-76
2020/12/11 06:23:19;;;;;;;15.80;7.25;;;0.00;99.90;;;;;;4931848;29;20582;-76
2020/12/11 06:25:50;;;;;;;13.52;7.88;;;0.00;99.90;;;;;;4917291;29;20229;-76
2020/12/11 06:28:43;;;;;;;11.13;7.97;;;0.00;99.90;;;;;;4916899;29;20323;-76
2020/12/11 06:31:13;;;;;;;19.65;7.20;;;-0.10;99.90;;;;;;4914081;29;20232;-74
2020/12/11 06:33:43;;;;;;;9.50;5.35;;;-0.10;99.90;;;;;;4920222;29;20201;-76
2020/12/11 06:36:11;;;;;;;14.77;8.70;;;0.00;99.90;;;;;;4920299;29;20695;-76
2020/12/11 06:38:43;;;;;;;17.08;7.22;;;0.00;99.90;;;;;;4917668;29;20189;-76
2020/12/11 06:41:10;;;;;;;10.05;6.50;;;0.00;99.90;;;;;;4917779;29;20242;-77
2020/12/11 06:43:40;;;;;;;16.50;3.65;;;0.00;99.90;;;;;;4918241;29;20281;-76
2020/12/11 06:46:19;;;;;;;28.55;7.65;;;0.00;99.90;;;;;;4917530;29;20228;-76
2020/12/11 06:49:07;;;;;;;15.48;7.47;;;0.00;99.90;;;;;;4917399;29;20181;-76
2020/12/11 06:51:36;;;;;;;17.42;6.85;;;0.00;99.90;;;;;;4917537;29;20256;-77
2020/12/11 06:54:03;;;;;;;15.10;8.88;;;0.00;99.90;;;;;;4916127;29;20651;-77
2020/12/11 06:56:41;;;;;;;10.60;7.90;;;0.00;99.90;;;;;;4917050;29;20194;-76
2020/12/11 06:59:23;;;;;;;15.20;8.38;;;0.00;99.90;;;;;;4916823;29;20189;-76
2020/12/11 07:01:51;;;;;;;13.85;8.52;;;0.10;99.90;;;;;;4916151;29;20225;-77
2020/12/11 07:04:19;;;;;;;11.40;7.90;;;0.00;99.90;;;;;;4916948;29;20222;-76
2020/12/11 07:06:48;;;;;;;10.60;6.70;;;0.10;99.90;;;;;;4921913;29;20649;-77
2020/12/11 07:09:16;;;;;;;11.60;9.15;;;0.10;99.90;;;;;;4921071;29;20178;-77
2020/12/11 07:11:45;;;;;;;17.10;11.23;;;0.10;99.90;;;;;;4919707;29;20190;-77
2020/12/11 07:14:13;;;;;;;15.85;8.75;;;0.10;99.90;;;;;;4919366;29;20217;-77
2020/12/11 07:16:42;;;;;;;16.13;7.28;;;0.10;99.90;;;;;;4921324;29;20174;-76
2020/12/11 07:19:11;;;;;;;20.33;7.25;;;0.10;99.90;;;;;;4919582;29;20586;-78
2020/12/11 07:21:40;;;;;;;13.93;6.93;;;0.20;99.90;;;;;;4922570;29;20198;-77
2020/12/11 07:24:08;;;;;;;26.83;8.43;;;0.20;99.90;;;;;;4920877;29;20268;-77
2020/12/11 07:26:36;;;;;;;11.02;7.57;;;0.20;99.90;;;;;;4921310;29;20193;-77
2020/12/11 07:29:05;;;;;;;27.27;9.77;;;0.20;99.90;;;;;;4919988;29;20293;-77
2020/12/11 07:31:36;;;;;;;14.93;8.32;;;0.30;99.90;;;;;;4920853;29;20193;-77
2020/12/11 07:34:13;;;;;;;17.45;6.85;;;0.30;99.90;;;;;;4920382;29;20676;-77
2020/12/11 07:36:41;;;;;;;30.70;6.47;;;0.30;99.90;;;;;;4919309;29;20196;-77
2020/12/11 07:39:15;;;;;;;18.35;7.10;;;0.30;99.90;;;;;;4920941;29;20661;-77
2020/12/11 07:41:44;;;;;;;18.02;9.05;;;0.30;99.90;;;;;;4919915;29;20205;-77
2020/12/11 07:44:21;;;;;;;20.50;6.93;;;0.30;99.90;;;;;;4920025;29;20190;-77
2020/12/11 07:46:49;;;;;;;20.88;7.70;;;0.30;99.90;;;;;;4920109;29;20181;-76
2020/12/11 07:49:18;;;;;;;14.35;7.80;;;0.30;99.90;;;;;;4920486;29;20197;-77
2020/12/11 07:51:46;;;;;;;15.48;7.97;;;0.30;99.90;;;;;;4934598;29;20197;-77
2020/12/11 07:54:14;;;;;;;27.50;9.20;;;0.30;99.90;;;;;;4919696;29;20205;-77
2020/12/11 07:56:42;;;;;;;17.58;8.65;;;0.30;99.90;;;;;;4919680;29;20645;-76
2020/12/11 07:59:11;;;;;;;12.95;7.70;;;0.30;99.90;;;;;;4919747;29;20193;-77
2020/12/11 08:01:39;;;;;;;17.80;8.65;;;0.30;99.90;;;;;;4920175;29;20193;-76
2020/12/11 08:04:07;;;;;;;27.10;9.82;;;0.20;99.90;;;;;;4919899;29;20549;-77
2020/12/11 08:06:36;;;;;;;15.00;8.00;;;0.30;99.90;;;;;;4920022;29;20193;-77
2020/12/11 08:09:11;;;;;;;31.40;10.45;;;0.30;99.90;;;;;;4920379;29;20170;-77
2020/12/11 08:11:43;;;;;;;19.10;8.15;;;0.30;99.90;;;;;;4919866;29;20189;-77
2020/12/11 08:14:11;;;;;;;15.45;8.88;;;0.30;99.90;;;;;;4919746;29;20225;-77
2020/12/11 08:16:41;;;;;;;21.33;7.80;;;0.30;99.90;;;;;;4918790;29;20181;-78
2020/12/11 08:19:10;;;;;;;21.52;11.35;;;0.30;99.90;;;;;;4920773;29;20257;-77
2020/12/11 08:21:39;;;;;;;19.13;6.63;;;0.30;99.90;;;;;;4935123;29;20202;-76
2020/12/11 08:24:06;;;;;;;24.02;8.35;;;0.30;99.90;;;;;;4919595;29;20213;-76
2020/12/11 08:26:37;;;;;;;20.25;7.78;;;0.30;99.90;;;;;;4919321;29;20220;-77
2020/12/11 08:29:06;;;;;;;15.10;7.93;;;0.30;99.90;;;;;;4919680;29;20173;-76
2020/12/11 08:31:40;;;;;;;29.67;9.82;;;0.30;99.90;;;;;;4919154;29;20193;-76
2020/12/11 08:34:10;;;;;;;20.55;10.60;;;0.30;99.90;;;;;;4919237;29;20292;-76
2020/12/11 08:36:40;;;;;;;15.73;7.38;;;0.30;99.90;;;;;;4919414;29;20667;-77
2020/12/11 08:39:17;;;;;;;10.05;5.97;;;0.20;99.90;;;;;;4918843;29;20244;-77
2020/12/11 08:42:12;;;;;;;18.48;8.32;;;0.20;99.90;;;;;;4920492;29;20182;-76
2020/12/11 08:45:05;;;;;;;22.73;6.68;;;0.20;99.90;;;;;;4919433;29;20292;-77
2020/12/11 08:47:46;;;;;;;14.85;7.47;;;0.20;99.90;;;;;;4922502;29;20207;-77
2020/12/11 08:50:25;;;;;;;17.75;9.60;;;0.20;99.90;;;;;;4920868;29;20186;-77
2020/12/11 08:52:53;;;;;;;21.65;8.30;;;0.30;99.90;;;;;;4924689;29;20248;-77
2020/12/11 08:55:23;;;;;;;23.83;8.77;;;0.40;99.90;;;;;;4920169;29;20292;-77
2020/12/11 08:57:51;;;;;;;10.68;6.13;;;0.40;99.90;;;;;;4920145;29;20685;-77
2020/12/11 09:00:18;;;;;;;18.50;9.43;;;0.50;99.90;;;;;;4918976;29;20593;-77
2020/12/11 09:02:46;;;;;;;21.63;11.98;;;0.40;99.90;;;;;;4919792;29;20186;-76
2020/12/11 09:05:14;;;;;;;14.68;8.10;;;0.40;99.90;;;;;;4956367;23;20223;-76
2020/12/11 09:07:41;;;;;;;11.10;6.60;;;0.40;99.90;;;;;;4959891;28;20204;-73
2020/12/11 09:10:09;;;;;;;21.13;9.90;;;0.40;99.90;;;;;;4960178;28;20191;-76
2020/12/11 09:12:36;;;;;;;11.75;6.45;;;0.40;99.90;;;;;;4959506;28;20610;-74
2020/12/11 09:15:09;;;;;;;18.80;10.65;;;0.40;99.90;;;;;;4960741;28;20220;-73
2020/12/11 09:17:36;;;;;;;28.60;12.60;;;0.40;99.90;;;;;;4960598;28;20188;-75
2020/12/11 09:20:03;;;;;;;17.15;7.90;;;0.40;99.90;;;;;;4958936;28;20651;-76
2020/12/11 09:22:31;;;;;;;11.65;7.15;;;0.40;99.90;;;;;;4955285;28;20528;-75
2020/12/11 09:24:59;;;;;;;11.48;8.57;;;0.50;99.90;;;;;;4955130;28;20574;-76
2020/12/11 09:27:27;;;;;;;5.95;5.03;;;0.50;99.90;;;;;;4954644;28;20224;-75
2020/12/11 09:30:01;;;;;;;9.43;6.03;;;0.50;99.90;;;;;;4954557;28;20214;-79
2020/12/11 09:32:35;;;;;;;8.80;7.82;;;0.60;99.90;;;;;;4959071;28;20287;-78
2020/12/11 09:35:03;;;;;;;17.55;7.20;;;0.70;99.90;;;;;;4957515;28;20310;-79
2020/12/11 09:37:30;;;;;;;14.82;7.85;;;0.70;99.90;;;;;;4959594;28;20184;-78
2020/12/11 09:39:57;;;;;;;21.02;10.02;;;0.80;99.90;;;;;;4959143;28;20184;-79
2020/12/11 09:45:18;;;;;;;19.85;11.32;;;0.90;99.90;;;;;;4929316;28;20266;-78
2020/12/11 09:50:34;;;;;;;25.83;10.85;;;0.90;99.90;;;;;;4944283;29;20685;-79
2020/12/11 09:53:09;;;;;;;15.07;7.43;;;0.80;99.90;;;;;;4960013;29;20753;-79
2020/12/11 09:55:41;;;;;;;17.05;10.60;;;0.80;99.90;;;;;;4958440;28;20674;-79
2020/12/11 09:58:08;;;;;;;12.25;7.68;;;0.80;99.90;;;;;;4958669;28;20544;-78
2020/12/11 10:00:39;;;;;;;11.07;9.88;;;0.70;99.90;;;;;;4958880;28;20212;-79
2020/12/11 10:03:12;;;;;;;8.38;6.40;;;0.70;99.90;;;;;;4956760;28;20271;-78
2020/12/11 10:05:41;;;;;;;21.55;11.68;;;0.70;99.90;;;;;;4928396;29;820354;-78
2020/12/11 10:08:08;;;;;;;17.33;9.70;;;0.60;99.90;;;;;;4958121;29;20606;-81
2020/12/11 10:10:38;;;;;;;11.60;8.30;;;0.70;99.90;;;;;;4943064;28;20713;-81
2020/12/11 10:13:06;;;;;;;13.52;8.25;;;0.80;99.90;;;;;;4945626;29;20208;-79
2020/12/11 10:15:34;;;;;;;18.30;7.85;;;0.90;99.90;;;;;;4951293;29;20249;-81
2020/12/11 10:21:00;;;;;;;15.10;6.47;;;1.00;99.90;;;;;;4956320;29;20203;-80
2020/12/11 10:23:32;;;;;;;9.00;3.33;;;1.00;99.90;;;;;;4961545;29;20199;-82
2020/12/11 10:26:02;;;;;;;18.70;8.10;;;1.00;99.90;;;;;;4964167;28;20212;-80
2020/12/11 10:28:55;;;;;;;20.88;11.38;;;1.00;99.90;;;;;;4980927;28;20216;-81
2020/12/11 10:39:26;;;;;;;15.43;9.35;;;1.10;99.90;;;;;;4960015;28;20206;-81
2020/12/11 10:41:59;;;;;;;17.95;7.90;;;1.00;99.90;;;;;;4963932;29;20196;-81
2020/12/11 10:44:28;;;;;;;10.55;6.72;;;1.00;99.90;;;;;;4963080;28;20259;-81
2020/12/11 10:46:55;;;;;;;6.88;4.70;;;1.00;99.90;;;;;;4964182;28;20211;-79
2020/12/11 10:49:23;;;;;;;19.35;8.00;;;0.90;99.90;;;;;;4961733;29;20204;-78
2020/12/11 10:51:52;;;;;;;16.50;8.25;;;0.90;99.90;;;;;;4964069;28;20736;-79
2020/12/11 10:54:26;;;;;;;24.23;8.98;;;0.90;99.90;;;;;;4979140;28;20219;-80
2020/12/11 10:57:26;;;;;;;13.68;8.10;;;0.90;99.90;;;;;;4966332;29;20210;-80
2020/12/11 10:59:59;;;;;;;14.00;9.50;;;0.90;99.90;;;;;;4964985;28;20561;-78
2020/12/11 11:02:30;;;;;;;14.65;10.98;;;0.90;99.90;;;;;;4947397;29;20216;-82
2020/12/11 11:05:31;;;;;;;20.50;7.90;;;0.80;99.90;;;;;;4970611;28;20208;-81
2020/12/11 11:18:44;;;;;;;17.02;7.22;;;1.00;99.90;;;;;;4956907;29;20219;-80
2020/12/11 11:28:42;;;;;;;12.85;7.82;;;1.10;99.90;;;;;;4962198;28;20200;-80
2020/12/11 11:31:40;;;;;;;13.98;9.95;;;1.00;99.90;;;;;;4963866;29;20299;-80
2020/12/11 11:34:12;;;;;;;16.17;10.95;;;1.00;99.90;;;;;;4975069;29;20230;-82
2020/12/11 11:37:01;;;;;;;21.70;10.43;;;1.00;99.90;;;;;;4982169;28;20183;-81
2020/12/11 11:39:39;;;;;;;14.77;8.23;;;1.00;99.90;;;;;;4980915;28;20183;-83
2020/12/11 11:42:26;;;;;;;13.00;6.82;;;0.90;99.90;;;;;;4981779;28;20172;-82
2020/12/11 11:45:07;;;;;;;10.85;6.10;;;0.90;99.90;;;;;;4976876;28;20212;-83
2020/12/11 11:47:55;;;;;;;20.52;7.97;;;0.90;99.90;;;;;;4964169;29;20200;-81
2020/12/11 11:50:35;;;;;;;22.55;10.70;;;0.90;99.90;;;;;;4963970;28;20232;-82
2020/12/11 11:53:13;;;;;;;19.08;8.38;;;1.00;99.90;;;;;;4961947;29;20259;-82
2020/12/11 11:55:47;;;;;;;13.57;7.80;;;1.00;99.90;;;;;;4962359;28;20222;-80
2020/12/11 11:58:35;;;;;;;10.93;6.60;;;1.10;99.90;;;;;;4965829;28;20180;-80
2020/12/11 12:01:35;;;;;;;9.95;6.80;;;1.20;99.90;;;;;;4961844;28;20199;-82
2020/12/11 12:04:29;;;;;;;35.45;8.60;;;1.20;99.90;;;;;;4965768;28;20206;-82
2020/12/11 12:06:58;;;;;;;16.70;7.97;;;1.20;99.90;;;;;;4961416;29;20196;-81
2020/12/11 12:09:52;;;;;;;20.25;11.15;;;1.30;99.90;;;;;;4946975;28;20206;-83
2020/12/11 12:12:29;;;;;;;8.43;7.07;;;1.30;99.90;;;;;;4962992;29;20216;-83
2020/12/11 12:15:10;;;;;;;16.98;8.32;;;1.40;99.90;;;;;;4963325;28;20645;-81
2020/12/11 12:17:43;;;;;;;14.80;8.60;;;1.40;99.90;;;;;;4961137;28;20196;-82
2020/12/11 12:20:16;;;;;;;19.45;7.30;;;1.30;99.90;;;;;;4961843;29;20269;-83
2020/12/11 12:31:25;;;;;;;10.05;6.75;;;1.50;99.90;;;;;;4953147;29;20196;-79
2020/12/11 12:34:20;;;;;;;9.90;7.35;;;1.50;99.90;;;;;;4957286;28;20220;-78
2020/12/11 12:40:00;;;;;;;11.57;8.32;;;1.80;99.90;;;;;;4950065;28;20204;-78
2020/12/11 12:42:45;;;;;;;21.25;11.88;;;1.90;99.90;;;;;;4959007;28;20682;-79
2020/12/11 12:45:13;;;;;;;19.00;9.90;;;2.00;99.90;;;;;;4960707;28;20299;-81
2020/12/11 12:47:41;;;;;;;24.67;10.98;;;2.10;99.90;;;;;;4963370;29;20185;-81
2020/12/11 12:50:15;;;;;;;16.45;8.93;;;1.90;99.90;;;;;;4960409;29;20580;-82
2020/12/11 12:52:43;;;;;;;14.85;8.00;;;1.90;99.90;;;;;;4964264;28;20179;-78
2020/12/11 12:55:14;;;;;;;22.90;9.10;;;1.70;99.90;;;;;;4962253;28;20219;-79
2020/12/11 12:57:44;;;;;;;13.05;8.10;;;1.70;99.90;;;;;;4960609;28;20207;-80
2020/12/11 13:00:25;;;;;;;9.70;6.53;;;1.80;99.90;;;;;;4962221;28;20722;-80
2020/12/11 13:05:46;;;;;;;16.67;8.23;;;2.00;99.90;;;;;;4959955;28;20223;-80
2020/12/11 13:08:15;;;;;;;16.55;10.82;;;2.10;99.90;;;;;;4959869;28;20184;-77
2020/12/11 13:10:44;;;;;;;18.60;10.13;;;2.10;99.90;;;;;;4959167;28;20192;-78
2020/12/11 13:13:13;;;;;;;14.52;9.50;;;2.10;99.90;;;;;;4961062;28;20604;-79
2020/12/11 13:15:41;;;;;;;27.83;10.90;;;2.10;99.90;;;;;;4960982;28;20208;-80
2020/12/11 13:18:12;;;;;;;22.95;12.90;;;2.20;99.90;;;;;;4961305;28;20204;-83
2020/12/11 13:20:46;;;;;;;24.38;11.27;;;2.20;99.90;;;;;;4964291;29;20187;-83
2020/12/11 13:29:19;;;;;;;12.07;7.05;;;2.20;99.90;;;;;;4962088;29;20622;-80
2020/12/11 13:35:01;;;;;;;19.60;11.90;;;2.20;99.90;;;;;;4958443;28;20228;-82
2020/12/11 13:37:54;;;;;;;16.92;8.73;;;2.40;99.90;;;;;;4970708;28;20196;-81
2020/12/11 13:40:25;;;;;;;12.95;6.60;;;2.30;99.90;;;;;;4975334;28;20195;-84
2020/12/11 13:42:53;;;;;;;17.80;10.43;;;2.20;99.90;;;;;;4974366;28;20203;-81
2020/12/11 13:45:21;;;;;;;15.98;11.82;;;2.20;99.90;;;;;;4986646;28;20226;-79
2020/12/11 13:47:52;;;;;;;18.92;10.23;;;2.20;99.90;;;;;;4970784;29;20196;-82
2020/12/11 13:50:21;;;;;;;14.13;11.13;;;2.10;99.90;;;;;;4964643;28;20204;-80
2020/12/11 13:52:58;;;;;;;13.57;10.30;;;2.10;99.90;;;;;;4962526;29;20187;-82
2020/12/11 13:55:30;;;;;;;21.88;11.23;;;2.20;99.90;;;;;;4965014;28;20243;-81
2020/12/11 13:58:12;;;;;;;27.98;12.55;;;2.00;99.90;;;;;;4948562;29;20195;-86
2020/12/11 14:00:56;;;;;;;18.80;11.82;;;2.10;99.90;;;;;;4965561;28;20196;-84
2020/12/11 14:03:50;;;;;;;18.70;9.77;;;2.00;99.90;;;;;;4967124;28;20200;-85
2020/12/11 14:06:45;;;;;;;25.70;10.10;;;1.90;99.90;;;;;;4962825;28;20635;-85
2020/12/11 14:09:58;;;;;;;14.77;8.80;;;1.90;99.90;;;;;;4966927;29;20191;-82